Terminal Aerodrome Forecast
Issued by NWS

Home | Current Version | Previous Version | Text Only | Print | Product List | Glossary Off
Versions: 1 2 3 4 5 6 7 8 9 10 11 12 13 14 15 16 17 18

000
FTUS43 KICT 210521
TAFSLN
TAF
KSLN 210521Z 2106/2206 10009KT P6SM -SHRA OVC110
     FM211200 10010KT 6SM -SHRA OVC025
     FM211900 07009KT 5SM -SHRA OVC008
     FM212000 06009KT 5SM -SHRA OVC010
     FM220000 05008KT P6SM VCSH OVC010
     FM220400 03005KT P6SM VCSH OVC020=

USA.gov is the U.S. government's official web portal to all federal, state and local government web resources and services.